TimeMDT,TemperatureF,Dew PointF,Humidity,Sea Level PressureIn,VisibilityMPH,Wind Direction,Wind SpeedMPH,Gust SpeedMPH,PrecipitationIn,Events,Conditions,WindDirDegrees,DateUTC
12:56 AM,52.0,39.9,63,29.96,10.0,Calm,Calm,-,N/A,,Clear,0,2013-07-15 06:56:00
1:56 AM,55.9,36.0,47,29.94,10.0,Calm,Calm,-,N/A,,Clear,0,2013-07-15 07:56:00
2:56 AM,48.9,36.0,61,29.96,10.0,Calm,Calm,-,N/A,,Clear,0,2013-07-15 08:56:00
3:56 AM,48.9,37.9,66,29.98,10.0,NW,8.1,-,N/A,,Clear,310,2013-07-15 09:56:00
4:56 AM,50.9,36.0,57,29.96,10.0,Calm,Calm,-,N/A,,Clear,0,2013-07-15 10:56:00
5:56 AM,50.0,34.9,56,29.97,10.0,Calm,Calm,-,N/A,,Clear,0,2013-07-15 11:56:00
6:56 AM,50.9,37.9,61,29.97,10.0,NNE,5.8,-,N/A,,Clear,20,2013-07-15 12:56:00
7:56 AM,61.0,37.9,42,29.95,10.0,Calm,Calm,-,N/A,,Clear,0,2013-07-15 13:56:00
8:56 AM,68.9,43.9,40,29.94,10.0,ESE,3.5,-,N/A,,Clear,120,2013-07-15 14:56:00
9:56 AM,77.9,41.0,27,29.91,10.0,SW,4.6,-,N/A,,Clear,230,2013-07-15 15:56:00
10:56 AM,81.9,36.9,20,29.92,10.0,SW,6.9,-,N/A,,Clear,220,2013-07-15 16:56:00
11:56 AM,84.9,30.0,14,29.92,10.0,SW,8.1,-,N/A,,Clear,230,2013-07-15 17:56:00
12:41 PM,84.2,26.6,12,30.19,10.0,South,8.1,-,N/A,,Partly Cloudy,180,2013-07-15 18:41:00
12:56 PM,86.0,31.1,14,29.91,10.0,Variable,5.8,-,N/A,,Partly Cloudy,0,2013-07-15 18:56:00
1:56 PM,88.0,29.1,12,-9999,-9999.0,North,-9999.0,-,N/A,,Unknown,0,2013-07-15 19:56:00
2:41 PM,82.4,37.4,20,30.18,10.0,North,-9999.0,-,N/A,,Mostly Cloudy,0,2013-07-15 20:41:00
2:56 PM,81.9,36.9,20,29.93,10.0,North,-9999.0,-,N/A,,Scattered Clouds,0,2013-07-15 20:56:00
3:56 PM,77.9,46.9,33,29.92,10.0,ESE,10.4,-,N/A,,Partly Cloudy,120,2013-07-15 21:56:00
4:56 PM,86.0,36.0,17,29.86,10.0,ENE,4.6,-,N/A,,Clear,70,2013-07-15 22:56:00
5:56 PM,86.0,36.0,17,29.85,10.0,Variable,6.9,-,N/A,,Clear,0,2013-07-15 23:56:00
6:56 PM,84.9,36.9,18,29.84,10.0,SW,6.9,-,N/A,,Clear,220,2013-07-16 00:56:00
7:56 PM,77.0,45.0,32,29.84,10.0,WSW,8.1,-,N/A,,Clear,250,2013-07-16 01:56:00
8:56 PM,73.9,45.0,35,29.82,10.0,ENE,10.4,-,N/A,,Clear,70,2013-07-16 02:56:00
9:56 PM,65.8,50.0,57,29.84,10.0,SSE,3.5,-,N/A,,Clear,160,2013-07-16 03:56:00
10:56 PM,61.0,45.9,58,29.85,10.0,East,3.5,-,N/A,,Clear,90,2013-07-16 04:56:00
11:56 PM,59.0,45.9,62,29.85,10.0,East,4.6,-,N/A,,Clear,100,2013-07-16 05:56:00